createdAt,value
2019-03-18T00:02:20.919Z,1.05
2019-03-18T00:04:56.995Z,1.00
2019-03-18T00:07:25.513Z,0.80
2019-03-18T00:09:54.122Z,1.27
2019-03-18T00:12:22.735Z,0.80
2019-03-18T00:15:00.734Z,1.45
2019-03-18T00:17:21.717Z,1.15
2019-03-18T00:19:50.354Z,2.15
2019-03-18T00:22:19.000Z,1.25
2019-03-18T00:24:47.619Z,1.10
2019-03-18T00:27:16.208Z,1.00
2019-03-18T00:29:44.819Z,1.25
2019-03-18T00:32:13.423Z,1.30
2019-03-18T00:34:42.019Z,1.17
2019-03-18T00:37:10.628Z,1.80
2019-03-18T00:39:39.259Z,1.77
2019-03-18T00:42:07.913Z,1.95
2019-03-18T00:44:36.624Z,2.37
2019-03-18T00:47:05.159Z,1.80
2019-03-18T00:49:33.837Z,2.33
2019-03-18T00:52:02.499Z,2.80
2019-03-18T00:54:31.101Z,2.70
2019-03-18T00:56:59.752Z,2.98
2019-03-18T00:59:28.355Z,2.80
2019-03-18T01:01:56.989Z,4.17
2019-03-18T01:04:25.603Z,2.52
2019-03-18T01:06:54.220Z,2.83
2019-03-18T01:09:22.829Z,2.80
2019-03-18T01:11:51.440Z,3.60
2019-03-18T01:14:20.055Z,3.10
2019-03-18T01:16:48.706Z,3.08
2019-03-18T01:19:17.301Z,4.10
2019-03-18T01:21:45.910Z,3.27
2019-03-18T01:24:14.602Z,3.47
2019-03-18T01:26:43.301Z,3.72
2019-03-18T01:29:11.902Z,4.78
2019-03-18T01:31:40.527Z,4.20
2019-03-18T01:34:09.134Z,4.30
2019-03-18T01:36:37.795Z,4.40
2019-03-18T01:39:07.359Z,4.25
2019-03-18T01:41:35.947Z,4.80
2019-03-18T01:44:04.622Z,4.22
2019-03-18T01:46:33.311Z,4.42
2019-03-18T01:49:01.998Z,4.75
2019-03-18T01:51:30.636Z,4.53
2019-03-18T01:53:59.264Z,4.90
2019-03-18T01:56:27.850Z,4.53
2019-03-18T01:58:56.478Z,4.60
2019-03-18T02:01:25.149Z,5.35
2019-03-18T02:03:53.792Z,4.90
2019-03-18T02:06:22.388Z,4.28
2019-03-18T02:08:51.001Z,4.58
2019-03-18T02:11:19.595Z,4.25
2019-03-18T02:13:48.219Z,4.90
2019-03-18T02:16:16.814Z,5.08
2019-03-18T02:18:45.413Z,4.00
2019-03-18T02:21:14.013Z,4.55
2019-03-18T02:23:42.663Z,4.80
2019-03-18T02:26:11.300Z,3.40
2019-03-18T02:28:39.907Z,3.85
2019-03-18T02:31:08.572Z,3.98
2019-03-18T02:33:37.185Z,5.92
2019-03-18T02:36:05.795Z,4.40
2019-03-18T02:38:34.398Z,3.72
2019-03-18T02:41:03.005Z,3.83
2019-03-18T02:43:31.623Z,4.30
2019-03-18T02:46:09.792Z,4.60
2019-03-18T02:48:30.633Z,4.35
2019-03-18T02:50:59.258Z,6.03
2019-03-18T02:53:27.862Z,4.47
2019-03-18T02:55:56.483Z,4.58
2019-03-18T02:58:25.065Z,4.92
2019-03-18T03:00:53.666Z,4.80
2019-03-18T03:03:22.257Z,4.37
2019-03-18T03:05:50.881Z,5.97
2019-03-18T03:08:19.474Z,5.15
2019-03-18T03:10:48.096Z,5.28
2019-03-18T03:13:16.699Z,5.50
2019-03-18T03:15:45.393Z,5.45
2019-03-18T03:18:13.991Z,5.55
2019-03-18T03:20:42.602Z,5.20
2019-03-18T03:23:11.316Z,4.83
2019-03-18T03:25:40.334Z,5.80
2019-03-18T03:28:08.922Z,5.35
2019-03-18T03:30:37.521Z,6.50
2019-03-18T03:33:06.132Z,5.53
2019-03-18T03:35:34.714Z,6.35
2019-03-18T03:38:03.312Z,5.60
2019-03-18T03:40:31.998Z,6.95
2019-03-18T03:43:00.615Z,6.58
2019-03-18T03:45:29.288Z,6.10
2019-03-18T03:47:57.911Z,6.45
2019-03-18T03:50:26.532Z,6.70
2019-03-18T03:52:55.432Z,6.83
2019-03-18T03:55:24.009Z,6.50
2019-03-18T03:57:52.688Z,7.10
2019-03-18T04:00:21.364Z,7.17
2019-03-18T04:02:50.035Z,6.85
2019-03-18T04:05:18.621Z,7.40
2019-03-18T04:07:47.258Z,7.10
2019-03-18T04:10:15.959Z,7.83
2019-03-18T04:12:44.550Z,8.85
2019-03-18T04:15:13.240Z,7.60
2019-03-18T04:17:41.912Z,8.35
2019-03-18T04:20:10.693Z,9.20
2019-03-18T04:22:39.290Z,8.05
2019-03-18T04:25:08.264Z,8.40
2019-03-18T04:27:36.861Z,8.85
2019-03-18T04:30:06.408Z,7.90
2019-03-18T04:32:35.030Z,9.23
2019-03-18T04:35:03.791Z,8.55
2019-03-18T04:37:32.638Z,7.97
2019-03-18T04:40:01.240Z,8.38
2019-03-18T04:42:29.856Z,7.55
2019-03-18T04:44:58.490Z,7.95
2019-03-18T04:47:27.101Z,7.87
2019-03-18T04:49:55.801Z,8.10
2019-03-18T04:52:24.444Z,7.75
2019-03-18T04:54:53.353Z,8.58
2019-03-18T04:57:22.006Z,6.53
2019-03-18T04:59:50.634Z,8.50
2019-03-18T05:02:19.261Z,8.40
2019-03-18T05:04:47.892Z,7.67
2019-03-18T05:07:16.497Z,7.33
2019-03-18T05:09:45.091Z,7.60
2019-03-18T05:12:13.700Z,7.78
2019-03-18T05:14:42.317Z,7.62
2019-03-18T05:17:10.938Z,7.70
2019-03-18T05:19:39.547Z,7.28
2019-03-18T05:22:08.237Z,8.43
2019-03-18T05:24:36.825Z,7.45
2019-03-18T05:27:05.520Z,7.28
2019-03-18T05:29:34.196Z,7.62
2019-03-18T05:32:05.125Z,6.90
2019-03-18T05:34:33.214Z,8.15
2019-03-18T05:37:01.879Z,6.97
2019-03-18T05:39:30.571Z,7.05
2019-03-18T05:41:59.197Z,6.22
2019-03-18T05:44:27.794Z,6.83
2019-03-18T05:46:56.423Z,6.35
2019-03-18T05:49:40.262Z,5.67
2019-03-18T05:52:08.883Z,6.17
2019-03-18T05:54:37.500Z,6.72
2019-03-18T05:57:06.109Z,6.62
2019-03-18T05:59:34.705Z,6.58
2019-03-18T06:02:03.431Z,6.40
2019-03-18T06:04:32.094Z,6.37
2019-03-18T06:07:00.899Z,7.00
2019-03-18T06:09:29.492Z,6.42
2019-03-18T06:11:58.120Z,6.45
2019-03-18T06:14:26.745Z,7.12
2019-03-18T06:16:55.397Z,6.53
2019-03-18T06:19:24.029Z,6.47
2019-03-18T06:21:52.637Z,6.35
2019-03-18T06:24:21.252Z,7.08
2019-03-18T06:26:49.908Z,6.80
2019-03-18T06:29:18.520Z,7.45
2019-03-18T06:31:47.171Z,6.85
2019-03-18T06:34:15.788Z,7.70
2019-03-18T06:36:44.401Z,7.72
2019-03-18T06:39:13.009Z,7.75
2019-03-18T06:41:41.656Z,7.95
2019-03-18T06:44:10.232Z,7.10
2019-03-18T06:46:38.845Z,7.25
2019-03-18T06:49:07.453Z,6.92
2019-03-18T06:51:36.165Z,7.12
2019-03-18T06:54:04.868Z,7.37
2019-03-18T06:56:33.485Z,7.55
2019-03-18T06:59:02.125Z,6.92
2019-03-18T07:01:30.724Z,6.08
2019-03-18T07:03:59.338Z,6.00
2019-03-18T07:06:27.947Z,6.10
2019-03-18T07:08:56.569Z,5.70
2019-03-18T07:11:25.173Z,5.10
2019-03-18T07:13:53.799Z,5.40
2019-03-18T07:16:22.417Z,5.08
2019-03-18T07:18:51.045Z,5.53
2019-03-18T07:21:19.642Z,4.92
2019-03-18T07:23:48.250Z,5.37
2019-03-18T07:26:16.843Z,5.10
2019-03-18T07:28:45.454Z,5.28
2019-03-18T07:31:14.111Z,4.40
2019-03-18T07:33:42.711Z,5.28
2019-03-18T07:36:11.370Z,4.15
2019-03-18T07:38:40.023Z,4.53
2019-03-18T07:41:08.636Z,5.05
2019-03-18T07:43:37.258Z,3.58
2019-03-18T07:46:05.876Z,4.40
2019-03-18T07:48:34.495Z,3.62
2019-03-18T07:51:03.117Z,3.80
2019-03-18T07:53:31.921Z,3.70
2019-03-18T07:56:00.527Z,3.60
2019-03-18T07:58:29.131Z,3.05
2019-03-18T08:00:57.907Z,2.92
2019-03-18T08:03:26.752Z,3.37
2019-03-18T08:05:55.387Z,3.15
2019-03-18T08:08:23.996Z,3.05
2019-03-18T08:10:52.641Z,3.37
2019-03-18T08:13:21.365Z,4.45
2019-03-18T08:15:49.985Z,3.12
2019-03-18T08:18:18.577Z,2.58
2019-03-18T08:20:47.223Z,2.47
2019-03-18T08:23:15.854Z,2.50
2019-03-18T08:25:44.530Z,2.90
2019-03-18T08:28:13.167Z,2.50
2019-03-18T08:30:41.773Z,2.70
2019-03-18T08:33:10.398Z,2.52
2019-03-18T08:35:39.000Z,2.50
2019-03-18T08:38:07.628Z,2.10
2019-03-18T08:40:36.313Z,2.72
2019-03-18T08:43:05.002Z,2.83
2019-03-18T08:45:33.618Z,2.22
2019-03-18T08:48:02.231Z,2.65
2019-03-18T08:50:30.823Z,2.67
2019-03-18T08:52:59.475Z,2.25
2019-03-18T08:55:28.248Z,2.50
2019-03-18T08:57:56.873Z,2.45
2019-03-18T09:00:25.477Z,1.75
2019-03-18T09:02:56.341Z,1.55
2019-03-18T09:05:24.486Z,1.80
2019-03-18T09:07:53.117Z,1.80
2019-03-18T09:10:21.718Z,2.50
2019-03-18T09:12:50.381Z,1.60
2019-03-18T09:15:19.099Z,1.80
2019-03-18T09:17:47.747Z,2.12
2019-03-18T09:20:16.611Z,1.82
2019-03-18T09:22:45.230Z,2.02
2019-03-18T09:25:14.095Z,2.40
2019-03-18T09:27:42.778Z,2.00
2019-03-18T09:30:12.163Z,1.98
2019-03-18T09:32:40.744Z,1.90
2019-03-18T09:35:09.423Z,1.82
2019-03-18T09:37:38.128Z,1.60
2019-03-18T09:40:06.877Z,1.60
2019-03-18T09:42:35.472Z,1.45
2019-03-18T09:45:04.453Z,2.98
2019-03-18T09:47:33.080Z,1.17
2019-03-18T09:50:01.708Z,2.33
2019-03-18T09:52:30.378Z,2.02
2019-03-18T09:54:58.942Z,2.02
2019-03-18T09:57:27.586Z,1.70
2019-03-18T09:59:56.237Z,1.60
2019-03-18T10:02:24.854Z,1.70
2019-03-18T10:04:53.470Z,1.65
2019-03-18T10:07:22.091Z,1.57
2019-03-18T10:09:50.721Z,2.00
2019-03-18T10:12:19.426Z,1.72
2019-03-18T10:14:47.989Z,1.80
2019-03-18T10:17:16.611Z,1.90
2019-03-18T10:19:45.251Z,1.70
2019-03-18T10:22:13.925Z,1.80
2019-03-18T10:24:42.534Z,1.98
2019-03-18T10:27:11.164Z,2.10
2019-03-18T10:29:39.745Z,2.02
2019-03-18T10:32:08.380Z,1.62
2019-03-18T10:34:36.986Z,1.70
2019-03-18T10:37:05.653Z,1.57
2019-03-18T10:39:34.261Z,1.50
2019-03-18T10:42:02.943Z,1.67
2019-03-18T10:44:31.529Z,2.10
2019-03-18T10:47:00.150Z,1.32
2019-03-18T10:49:28.772Z,1.75
2019-03-18T10:51:57.449Z,1.20
2019-03-18T10:54:30.929Z,2.20
2019-03-18T10:56:56.432Z,1.62
2019-03-18T10:59:25.065Z,1.42
2019-03-18T11:01:53.721Z,1.10
2019-03-18T11:04:22.315Z,1.15
2019-03-18T11:06:51.013Z,1.47
2019-03-18T11:09:19.705Z,1.35
2019-03-18T11:11:48.346Z,1.67
2019-03-18T11:14:16.977Z,1.32
2019-03-18T11:16:45.587Z,1.22
2019-03-18T11:19:14.302Z,1.55
2019-03-18T11:21:42.939Z,1.10
2019-03-18T11:24:11.558Z,1.00
2019-03-18T11:26:40.269Z,1.35
2019-03-18T11:29:08.892Z,1.30
2019-03-18T11:31:37.539Z,1.00
2019-03-18T11:34:06.215Z,0.70
2019-03-18T11:36:34.841Z,1.40
2019-03-18T11:39:03.798Z,0.95
2019-03-18T11:41:32.470Z,0.60
2019-03-18T11:44:01.098Z,1.00
2019-03-18T11:46:29.736Z,0.78
2019-03-18T11:48:58.336Z,0.60
2019-03-18T11:51:26.946Z,0.95
2019-03-18T11:53:55.652Z,1.00
2019-03-18T11:56:24.368Z,0.72
2019-03-18T11:58:53.060Z,1.05
2019-03-18T12:01:21.674Z,1.47
2019-03-18T12:03:50.285Z,1.20
2019-03-18T12:06:18.890Z,1.10
2019-03-18T12:08:47.507Z,1.20
2019-03-18T12:11:16.109Z,0.98
2019-03-18T12:13:44.735Z,1.20
2019-03-18T12:16:13.373Z,1.22
2019-03-18T12:18:41.988Z,0.90
2019-03-18T12:21:10.595Z,1.10
2019-03-18T12:23:39.217Z,1.30
2019-03-18T12:26:07.846Z,1.30
2019-03-18T12:28:36.555Z,1.70
2019-03-18T12:31:05.150Z,0.90
2019-03-18T12:33:33.843Z,1.15
2019-03-18T12:36:02.456Z,1.80
2019-03-18T12:38:31.093Z,1.60
2019-03-18T12:40:59.802Z,1.82
2019-03-18T12:43:28.453Z,1.02
2019-03-18T12:45:57.069Z,1.30
2019-03-18T12:48:25.697Z,1.20
2019-03-18T12:50:56.377Z,1.00
2019-03-18T12:53:24.668Z,1.22
2019-03-18T12:55:53.266Z,1.40
2019-03-18T12:58:21.889Z,2.55
2019-03-18T13:00:50.630Z,1.20
2019-03-18T13:03:19.287Z,1.85
2019-03-18T13:05:47.895Z,1.22
2019-03-18T13:08:16.606Z,1.45
2019-03-18T13:10:45.258Z,1.17
2019-03-18T13:13:13.830Z,1.20
2019-03-18T13:15:42.569Z,3.70
2019-03-18T13:18:11.183Z,1.27
2019-03-18T13:20:39.904Z,1.57
2019-03-18T13:23:08.577Z,1.92
2019-03-18T13:25:37.218Z,1.15
2019-03-18T13:28:05.829Z,1.25
2019-03-18T13:30:34.467Z,0.80
2019-03-18T13:33:03.084Z,0.90
2019-03-18T13:35:31.688Z,1.35
2019-03-18T13:38:00.354Z,0.88
2019-03-18T13:40:28.978Z,0.95
2019-03-18T13:42:57.986Z,1.40
2019-03-18T13:45:26.596Z,1.22
2019-03-18T13:47:55.191Z,1.25
2019-03-18T13:50:23.886Z,1.60
2019-03-18T13:52:52.663Z,2.10
2019-03-18T13:55:21.357Z,1.20
2019-03-18T13:57:49.950Z,1.20
2019-03-18T14:00:18.723Z,1.47
2019-03-18T14:02:47.376Z,1.10
2019-03-18T14:05:16.130Z,1.40
2019-03-18T14:07:44.730Z,1.37
2019-03-18T14:10:14.138Z,1.30
2019-03-18T14:12:42.986Z,1.40
2019-03-18T14:15:13.469Z,1.50
2019-03-18T14:17:42.152Z,1.87
2019-03-18T14:20:12.504Z,1.20
2019-03-18T14:22:41.116Z,1.42
2019-03-18T14:25:10.071Z,1.50
2019-03-18T14:27:38.698Z,1.10
2019-03-18T14:30:09.922Z,1.57
2019-03-18T14:32:38.541Z,1.35
2019-03-18T14:35:07.635Z,1.35
2019-03-18T14:37:36.292Z,1.37
2019-03-18T14:40:05.951Z,1.07
2019-03-18T14:42:34.591Z,1.17
2019-03-18T14:45:03.239Z,0.82
2019-03-18T14:47:31.960Z,1.65
2019-03-18T14:50:00.621Z,1.32
2019-03-18T14:52:29.233Z,1.10
2019-03-18T14:54:57.852Z,1.40
2019-03-18T14:57:26.468Z,1.45
2019-03-18T14:59:56.366Z,1.50
2019-03-18T15:02:25.020Z,1.60
2019-03-18T15:04:53.596Z,1.00
2019-03-18T15:07:22.312Z,1.05
2019-03-18T15:09:50.908Z,1.40
2019-03-18T15:12:19.543Z,1.15
2019-03-18T15:14:48.178Z,1.10
2019-03-18T15:17:16.807Z,0.90
2019-03-18T15:19:45.417Z,0.90
2019-03-18T15:22:14.037Z,1.30
2019-03-18T15:24:42.636Z,1.00
2019-03-18T15:27:11.340Z,1.05
2019-03-18T15:29:39.955Z,1.00
2019-03-18T15:32:08.570Z,1.67
2019-03-18T15:34:37.205Z,1.20
2019-03-18T15:37:05.904Z,1.15
2019-03-18T15:39:34.485Z,0.97
2019-03-18T15:42:03.134Z,0.77
2019-03-18T15:44:31.738Z,1.00
2019-03-18T15:47:00.334Z,0.90
2019-03-18T15:49:28.923Z,0.80
2019-03-18T15:52:10.048Z,0.72
2019-03-18T15:54:27.919Z,0.80
2019-03-18T15:56:56.516Z,1.30
2019-03-18T15:59:25.281Z,0.65
2019-03-18T16:01:53.886Z,1.03
2019-03-18T16:04:21.523Z,0.88
2019-03-18T16:06:50.051Z,0.93
2019-03-18T16:09:18.691Z,1.10
2019-03-18T16:11:47.301Z,0.80
2019-03-18T16:14:15.934Z,0.90
2019-03-18T16:16:44.626Z,0.93
2019-03-18T16:19:13.541Z,1.10
2019-03-18T16:21:42.087Z,1.10
2019-03-18T16:24:10.801Z,1.40
2019-03-18T16:26:39.421Z,1.00
2019-03-18T16:29:08.038Z,0.80
2019-03-18T16:31:36.664Z,0.85
2019-03-18T16:34:05.298Z,0.80
2019-03-18T16:36:34.003Z,1.27
2019-03-18T16:39:02.723Z,0.90
2019-03-18T16:41:31.336Z,0.95
2019-03-18T16:43:59.996Z,0.80
2019-03-18T16:46:28.618Z,1.02
2019-03-18T16:48:59.896Z,1.60
2019-03-18T16:51:32.234Z,1.30
2019-03-18T16:54:06.438Z,1.20
2019-03-18T16:56:37.470Z,1.00
2019-03-18T16:59:16.311Z,0.75
2019-03-18T17:01:48.455Z,1.10
2019-03-18T17:04:18.179Z,1.17
2019-03-18T17:06:49.856Z,1.42
2019-03-18T17:09:18.871Z,1.07
2019-03-18T17:11:58.025Z,0.78
2019-03-18T17:14:27.772Z,1.30
2019-03-18T17:16:57.007Z,1.82
2019-03-18T17:19:26.744Z,0.98
2019-03-18T17:21:56.855Z,0.90
2019-03-18T17:24:27.590Z,1.17
2019-03-18T17:26:57.138Z,1.17
2019-03-18T17:29:26.966Z,0.85
2019-03-18T17:31:56.107Z,1.02
2019-03-18T17:34:24.861Z,1.20
2019-03-18T17:36:55.364Z,0.95
2019-03-18T17:39:24.997Z,1.12
2019-03-18T17:41:56.895Z,1.30
2019-03-18T17:44:25.981Z,1.02
2019-03-18T17:46:56.996Z,1.30
2019-03-18T17:49:26.156Z,1.37
2019-03-18T17:51:58.194Z,1.30
2019-03-18T17:54:27.179Z,1.40
2019-03-18T17:57:07.073Z,1.50
2019-03-18T17:59:32.930Z,1.60
2019-03-18T18:02:01.779Z,1.20
2019-03-18T18:04:30.371Z,1.20
2019-03-18T18:06:59.002Z,1.17
2019-03-18T18:09:27.599Z,1.77
2019-03-18T18:11:56.312Z,2.08
2019-03-18T18:14:24.935Z,1.40
2019-03-18T18:16:53.666Z,1.32
2019-03-18T18:19:22.271Z,5.30
2019-03-18T18:21:50.890Z,3.47
2019-03-18T18:24:19.522Z,1.47
2019-03-18T18:26:48.147Z,1.82
2019-03-18T18:29:16.784Z,2.55
2019-03-18T18:31:45.463Z,1.80
2019-03-18T18:34:14.103Z,2.25
2019-03-18T18:36:42.745Z,2.22
2019-03-18T18:39:11.351Z,2.50
2019-03-18T18:41:39.950Z,2.77
2019-03-18T18:44:08.563Z,4.25
2019-03-18T18:46:37.209Z,4.15
2019-03-18T18:49:05.847Z,4.05
2019-03-18T18:51:34.465Z,3.75
2019-03-18T18:54:03.084Z,4.58
2019-03-18T18:56:31.825Z,4.35
2019-03-18T18:59:00.539Z,5.92
2019-03-18T19:01:29.146Z,4.72
2019-03-18T19:03:57.883Z,4.40
2019-03-18T19:06:26.479Z,2.80
2019-03-18T19:08:55.086Z,2.27
2019-03-18T19:11:23.678Z,2.15
2019-03-18T19:13:52.313Z,2.05
2019-03-18T19:16:20.940Z,2.45
2019-03-18T19:18:53.398Z,2.33
2019-03-18T19:21:23.580Z,2.72
2019-03-18T19:23:54.110Z,3.00
2019-03-18T19:26:23.907Z,2.58
2019-03-18T19:28:54.482Z,2.35
2019-03-18T19:31:24.988Z,3.50
2019-03-18T19:33:56.512Z,2.80
2019-03-18T19:36:27.394Z,2.55
2019-03-18T19:38:58.395Z,2.60
2019-03-18T19:41:32.878Z,4.20
2019-03-18T19:44:05.352Z,3.85
2019-03-18T19:46:35.044Z,3.77
2019-03-18T19:49:05.754Z,2.95
2019-03-18T19:51:35.430Z,2.50
2019-03-18T19:54:04.714Z,2.35
2019-03-18T19:56:33.788Z,2.80
2019-03-18T19:59:05.099Z,5.10
2019-03-18T20:01:36.582Z,2.60
2019-03-18T20:04:07.614Z,2.27
2019-03-18T20:06:37.263Z,3.12
2019-03-18T20:09:08.197Z,2.47
2019-03-18T20:11:37.268Z,3.05
2019-03-18T20:14:09.918Z,3.33
2019-03-18T20:16:40.505Z,2.80
2019-03-18T20:19:12.610Z,2.47
2019-03-18T20:21:42.209Z,2.00
2019-03-18T20:24:10.829Z,2.45
2019-03-18T20:26:40.234Z,2.60
2019-03-18T20:29:11.854Z,2.70
2019-03-18T20:31:44.679Z,2.60
2019-03-18T20:34:17.886Z,3.17
2019-03-18T20:36:47.233Z,2.65
2019-03-18T20:39:20.916Z,2.90
2019-03-18T20:41:50.739Z,2.95
2019-03-18T20:44:23.561Z,2.72
2019-03-18T20:46:55.198Z,2.52
2019-03-18T20:49:24.299Z,2.33
2019-03-18T20:51:53.575Z,2.80
2019-03-18T20:54:24.788Z,2.42
2019-03-18T20:56:54.179Z,3.30
2019-03-18T20:59:25.540Z,2.70
2019-03-18T21:01:58.482Z,2.85
2019-03-18T21:04:29.034Z,4.47
2019-03-18T21:07:02.418Z,2.83
2019-03-18T21:09:36.324Z,3.40
2019-03-18T21:12:06.138Z,3.15
2019-03-18T21:14:35.135Z,3.42
2019-03-18T21:17:05.909Z,4.12
2019-03-18T21:19:36.389Z,4.22
2019-03-18T21:22:07.830Z,4.75
2019-03-18T21:24:36.727Z,3.72
2019-03-18T21:27:06.367Z,3.80
2019-03-18T21:29:37.107Z,3.65
2019-03-18T21:32:07.896Z,3.52
2019-03-18T21:34:38.188Z,3.50
2019-03-18T21:37:06.943Z,4.00
2019-03-18T21:39:36.295Z,2.95
2019-03-18T21:42:08.543Z,3.60
2019-03-18T21:44:38.033Z,3.35
2019-03-18T21:47:07.235Z,3.50
2019-03-18T21:49:37.177Z,3.12
2019-03-18T21:52:07.368Z,3.55
2019-03-18T21:54:38.942Z,3.33
2019-03-18T21:57:10.348Z,3.65
2019-03-18T21:59:52.070Z,3.40
2019-03-18T22:02:25.117Z,3.40
2019-03-18T22:04:57.426Z,3.90
2019-03-18T22:07:31.626Z,3.80
2019-03-18T22:10:09.826Z,3.62
2019-03-18T22:12:41.225Z,3.95
2019-03-18T22:15:11.324Z,4.17
2019-03-18T22:17:42.262Z,4.28
2019-03-18T22:20:35.507Z,4.12
2019-03-18T22:23:08.870Z,3.67
2019-03-18T22:25:38.495Z,4.42
2019-03-18T22:28:10.576Z,3.20
2019-03-18T22:30:45.184Z,3.40
2019-03-18T22:33:15.349Z,3.90
2019-03-18T22:35:48.330Z,4.65
2019-03-18T22:38:22.582Z,3.83
2019-03-18T22:40:53.983Z,3.33
2019-03-18T22:43:25.182Z,3.77
2019-03-18T22:45:53.718Z,4.10
2019-03-18T22:48:22.570Z,4.12
2019-03-18T22:50:51.318Z,3.50
2019-03-18T22:53:27.669Z,3.17
2019-03-18T22:55:59.066Z,3.25
2019-03-18T22:58:28.260Z,3.62
2019-03-18T23:01:07.023Z,3.80
2019-03-18T23:03:36.438Z,3.02
2019-03-18T23:06:07.210Z,4.05
2019-03-18T23:08:36.942Z,3.33
2019-03-18T23:11:08.758Z,3.83
2019-03-18T23:13:39.462Z,3.50
2019-03-18T23:16:15.075Z,3.58
2019-03-18T23:18:50.394Z,3.20
2019-03-18T23:21:19.648Z,3.20
2019-03-18T23:23:48.432Z,3.70
2019-03-18T23:26:18.722Z,3.17
2019-03-18T23:28:47.334Z,3.77
2019-03-18T23:31:15.985Z,6.10
2019-03-18T23:33:44.608Z,4.70
2019-03-18T23:36:13.243Z,4.90
2019-03-18T23:38:41.890Z,4.80
2019-03-18T23:41:10.528Z,3.92
2019-03-18T23:43:39.287Z,4.12
2019-03-18T23:46:07.931Z,3.75
2019-03-18T23:48:36.535Z,4.05
2019-03-18T23:51:05.130Z,5.28
2019-03-18T23:53:33.792Z,3.70
2019-03-18T23:56:02.414Z,3.83
2019-03-18T23:58:31.112Z,3.70
